Time;durP1;ratioP1;P1;durP2;ratioP2;P2;SDS_P1;SDS_P2;PMS_P1;PMS_P2;Temp;Humidity;BMP_temperature;BMP_pressure;BME280_temperature;BME280_humidity;BME280_pressure;Samples;Min_cycle;Max_cycle;Signal;HPM_P1;HPM_P2
2023/07/02 00:00:54;;;;;;;16.25;5.10;;;15.90;99.90;;;;;;5109008;28;20047;-82
2023/07/02 00:03:21;;;;;;;10.60;3.95;;;15.90;99.90;;;;;;5126706;27;20054;-81
2023/07/02 00:05:50;;;;;;;14.63;5.53;;;15.90;99.90;;;;;;5129432;27;20043;-82
2023/07/02 00:08:16;;;;;;;15.35;4.85;;;15.80;99.90;;;;;;5107931;27;20043;-82
2023/07/02 00:10:43;;;;;;;15.45;4.45;;;15.80;99.90;;;;;;5128373;27;20046;-81
2023/07/02 00:13:09;;;;;;;16.65;4.82;;;15.80;99.90;;;;;;5127616;27;20039;-82
2023/07/02 00:15:35;;;;;;;14.48;4.65;;;15.80;99.90;;;;;;5109515;27;20608;-82
2023/07/02 00:18:00;;;;;;;10.25;4.72;;;15.70;99.90;;;;;;5110290;27;20499;-81
2023/07/02 00:20:26;;;;;;;11.85;4.47;;;15.70;99.90;;;;;;5126962;27;20470;-82
2023/07/02 00:22:54;;;;;;;14.38;4.13;;;14.10;99.90;;;;;;5129322;27;20520;-82
2023/07/02 00:25:20;;;;;;;17.67;5.80;;;15.60;99.90;;;;;;5090886;27;20510;-82
2023/07/02 00:27:46;;;;;;;18.95;5.82;;;15.70;99.90;;;;;;5075914;27;20039;-83
2023/07/02 00:30:12;;;;;;;11.50;4.43;;;15.60;99.90;;;;;;5092271;27;20050;-82
2023/07/02 00:32:37;;;;;;;21.15;4.90;;;15.60;99.90;;;;;;5130151;27;20126;-81
2023/07/02 00:35:03;;;;;;;15.88;4.38;;;15.60;99.90;;;;;;5113797;27;20086;-81
2023/07/02 00:37:29;;;;;;;19.75;5.43;;;15.60;99.90;;;;;;5129347;27;20046;-82
2023/07/02 00:39:54;;;;;;;12.57;4.78;;;15.60;99.90;;;;;;5129934;27;20082;-83
2023/07/02 00:42:21;;;;;;;14.98;4.72;;;15.50;99.90;;;;;;5126841;27;20089;-82
2023/07/02 00:44:46;;;;;;;12.40;5.50;;;15.50;99.90;;;;;;5128899;27;20386;-82
2023/07/02 00:47:13;;;;;;;20.67;5.35;;;15.40;99.90;;;;;;5126549;27;20059;-81
2023/07/02 00:49:40;;;;;;;16.40;5.32;;;15.40;99.90;;;;;;5128010;27;20035;-81
2023/07/02 00:52:06;;;;;;;17.33;4.90;;;15.40;99.90;;;;;;5127457;27;20509;-82
2023/07/02 00:54:32;;;;;;;14.52;5.30;;;15.40;99.90;;;;;;5126425;27;20043;-82
2023/07/02 00:57:02;;;;;;;18.08;6.07;;;15.30;99.90;;;;;;5110258;27;20049;-83
2023/07/02 00:59:34;;;;;;;18.98;5.35;;;15.30;99.90;;;;;;5090317;27;20039;-81
2023/07/02 01:01:59;;;;;;;18.25;5.90;;;15.30;99.90;;;;;;5109268;27;20047;-82
2023/07/02 01:04:27;;;;;;;17.95;6.13;;;15.30;99.90;;;;;;5091101;27;20043;-82
2023/07/02 01:06:57;;;;;;;19.17;5.38;;;15.30;99.90;;;;;;5126816;27;20132;-81
2023/07/02 01:09:26;;;;;;;21.10;5.07;;;15.30;99.90;;;;;;5128262;27;20035;-82
2023/07/02 01:12:02;;;;;;;22.45;6.82;;;15.30;99.90;;;;;;5090385;27;20419;-82
2023/07/02 01:14:33;;;;;;;17.98;5.55;;;15.30;99.90;;;;;;5109380;27;20057;-81
2023/07/02 01:17:00;;;;;;;19.13;5.85;;;15.20;99.90;;;;;;5107770;27;20427;-82
2023/07/02 01:19:44;;;;;;;21.15;6.10;;;15.20;99.90;;;;;;5126973;27;20052;-81
2023/07/02 01:22:11;;;;;;;17.60;4.90;;;15.20;99.90;;;;;;5109144;27;20043;-82
2023/07/02 01:24:39;;;;;;;15.30;5.05;;;15.20;99.90;;;;;;5072965;27;20661;-82
2023/07/02 01:27:05;;;;;;;15.25;5.65;;;15.10;99.90;;;;;;5109893;27;20542;-82
2023/07/02 01:29:31;;;;;;;24.63;6.25;;;15.10;99.90;;;;;;5106708;27;20127;-81
2023/07/02 01:31:57;;;;;;;20.02;5.57;;;15.10;99.90;;;;;;5074781;27;20054;-81
2023/07/02 01:34:23;;;;;;;15.48;5.20;;;15.10;99.90;;;;;;5107291;27;20040;-82
2023/07/02 01:36:49;;;;;;;14.45;5.45;;;15.10;99.90;;;;;;5107977;27;20035;-82
2023/07/02 01:39:15;;;;;;;14.68;4.72;;;15.10;99.90;;;;;;5108712;27;20050;-82
2023/07/02 01:41:56;;;;;;;21.02;6.38;;;15.00;99.90;;;;;;5124958;27;20486;-81
2023/07/02 01:44:27;;;;;;;18.98;5.90;;;15.00;99.90;;;;;;5109231;27;20066;-81
2023/07/02 01:46:55;;;;;;;22.27;5.63;;;15.00;99.90;;;;;;5089470;27;20502;-82
2023/07/02 01:49:20;;;;;;;19.67;6.13;;;15.00;99.90;;;;;;5126344;27;20509;-82
2023/07/02 01:51:50;;;;;;;15.32;5.57;;;14.90;99.90;;;;;;5126510;27;20051;-83
2023/07/02 01:54:16;;;;;;;17.60;5.88;;;14.90;99.90;;;;;;5089805;27;20570;-83
2023/07/02 01:56:41;;;;;;;17.83;5.22;;;14.90;99.90;;;;;;5127234;27;20043;-81
2023/07/02 01:59:07;;;;;;;30.13;7.10;;;14.90;99.90;;;;;;5105623;27;20039;-82
2023/07/02 02:01:33;;;;;;;21.05;6.07;;;14.80;99.90;;;;;;5091194;27;20054;-82
2023/07/02 02:03:58;;;;;;;14.35;5.80;;;14.90;99.90;;;;;;5124973;27;20046;-82
2023/07/02 02:06:24;;;;;;;20.73;5.68;;;14.80;99.90;;;;;;5126744;27;20092;-82
2023/07/02 02:08:50;;;;;;;21.15;5.95;;;14.80;99.90;;;;;;5097226;27;20043;-82
2023/07/02 02:11:16;;;;;;;18.45;6.22;;;15.00;99.90;;;;;;5092492;27;20039;-82
2023/07/02 02:13:41;;;;;;;19.42;7.25;;;14.80;99.90;;;;;;5092109;27;20122;-81
2023/07/02 02:16:07;;;;;;;24.60;7.18;;;14.70;99.90;;;;;;5106373;27;20058;-82
2023/07/02 02:18:33;;;;;;;17.70;6.10;;;14.70;99.90;;;;;;5108413;27;20169;-82
2023/07/02 02:20:58;;;;;;;14.70;5.30;;;14.70;99.90;;;;;;5105844;27;20046;-83
2023/07/02 02:23:24;;;;;;;15.45;6.55;;;14.70;99.90;;;;;;5090708;27;20039;-82
2023/07/02 02:25:50;;;;;;;24.27;6.63;;;14.60;99.90;;;;;;5106512;28;20130;-82
2023/07/02 02:28:15;;;;;;;21.63;6.22;;;14.60;99.90;;;;;;5125518;27;20035;-81
2023/07/02 02:30:41;;;;;;;20.25;5.60;;;14.60;99.90;;;;;;5107982;28;20035;-82
2023/07/02 02:33:07;;;;;;;19.10;5.43;;;14.60;99.90;;;;;;5071918;28;20047;-82
2023/07/02 02:35:32;;;;;;;22.50;6.80;;;14.60;99.90;;;;;;5091638;28;20205;-83
2023/07/02 02:38:01;;;;;;;22.27;6.25;;;14.50;99.90;;;;;;5105911;28;20433;-83
2023/07/02 02:40:26;;;;;;;20.75;5.78;;;14.60;99.90;;;;;;5107835;28;20042;-83
2023/07/02 02:42:52;;;;;;;20.02;5.35;;;14.70;99.90;;;;;;5124778;28;20061;-83
2023/07/02 02:45:18;;;;;;;23.13;7.35;;;14.60;99.90;;;;;;5106430;28;20442;-83
2023/07/02 02:47:45;;;;;;;27.08;7.43;;;14.60;99.90;;;;;;5125916;28;20047;-82
2023/07/02 02:50:13;;;;;;;26.05;8.43;;;14.50;99.90;;;;;;5124385;28;20104;-83
2023/07/02 02:52:39;;;;;;;25.38;6.03;;;14.50;99.90;;;;;;5127019;28;20100;-83
2023/07/02 02:55:06;;;;;;;23.23;6.70;;;14.50;99.90;;;;;;5123904;28;20046;-81
2023/07/02 02:57:32;;;;;;;23.60;7.05;;;14.50;99.90;;;;;;5090300;28;20043;-82
2023/07/02 02:59:59;;;;;;;24.50;6.40;;;14.40;99.90;;;;;;5106738;28;20127;-82
2023/07/02 03:02:25;;;;;;;26.13;7.65;;;14.40;99.90;;;;;;5106408;28;20039;-82
2023/07/02 03:04:51;;;;;;;17.35;5.63;;;14.40;99.90;;;;;;5090321;28;20050;-82
2023/07/02 03:07:17;;;;;;;22.58;6.85;;;14.40;99.90;;;;;;5105173;28;20328;-83
2023/07/02 03:09:43;;;;;;;23.35;6.70;;;14.40;99.90;;;;;;5091042;28;20096;-81
2023/07/02 03:12:09;;;;;;;19.13;6.25;;;14.40;99.90;;;;;;5105409;28;20043;-82
2023/07/02 03:14:34;;;;;;;28.38;6.65;;;14.40;99.90;;;;;;5107330;28;20047;-82
2023/07/02 03:17:00;;;;;;;22.48;6.68;;;14.40;99.90;;;;;;5124776;28;20440;-82
2023/07/02 03:19:29;;;;;;;22.90;7.18;;;14.40;99.90;;;;;;5089356;28;20086;-83
2023/07/02 03:21:54;;;;;;;28.27;7.20;;;15.30;99.90;;;;;;5125556;28;20131;-83
2023/07/02 03:24:20;;;;;;;17.58;5.95;;;14.30;99.90;;;;;;5104847;28;20035;-81
2023/07/02 03:26:46;;;;;;;25.80;6.75;;;14.30;99.90;;;;;;5107328;28;20055;-82
2023/07/02 03:29:12;;;;;;;14.65;4.65;;;14.30;99.90;;;;;;5071300;28;20078;-81
2023/07/02 03:31:38;;;;;;;26.23;7.65;;;14.30;99.90;;;;;;5107995;28;20587;-82
2023/07/02 03:34:09;;;;;;;20.23;6.20;;;14.30;99.90;;;;;;5108858;28;20043;-81
2023/07/02 03:36:35;;;;;;;23.23;7.13;;;14.30;99.90;;;;;;5127796;27;20043;-83
2023/07/02 03:39:00;;;;;;;25.63;7.47;;;14.30;99.90;;;;;;5130195;27;20047;-82
2023/07/02 03:41:26;;;;;;;18.40;6.32;;;14.30;99.90;;;;;;5092550;27;20370;-81
2023/07/02 03:43:52;;;;;;;27.17;5.65;;;14.30;99.90;;;;;;5095074;27;20051;-83
2023/07/02 03:46:18;;;;;;;18.02;6.43;;;13.80;99.90;;;;;;5108359;27;20467;-83
2023/07/02 03:48:43;;;;;;;22.48;6.18;;;14.40;99.90;;;;;;5076979;27;20078;-83
2023/07/02 03:51:12;;;;;;;26.75;6.05;;;14.40;99.90;;;;;;5127762;27;20410;-82
2023/07/02 03:53:38;;;;;;;15.57;7.28;;;14.50;99.90;;;;;;5128610;27;20043;-82
2023/07/02 03:56:04;;;;;;;21.65;6.40;;;14.50;99.90;;;;;;5129353;27;20062;-82
2023/07/02 03:58:29;;;;;;;23.98;6.90;;;14.50;99.90;;;;;;5127176;27;20051;-83
2023/07/02 04:00:55;;;;;;;16.42;5.45;;;14.50;99.90;;;;;;5093718;27;20490;-81
2023/07/02 04:03:21;;;;;;;23.52;6.55;;;14.50;99.90;;;;;;5108111;27;20039;-82
2023/07/02 04:05:46;;;;;;;18.50;5.15;;;14.60;99.90;;;;;;5129655;27;20039;-83
2023/07/02 04:08:12;;;;;;;17.77;6.50;;;14.60;99.90;;;;;;5109819;27;20111;-82
2023/07/02 04:10:38;;;;;;;25.98;6.60;;;14.70;99.90;;;;;;5128543;27;20087;-82
2023/07/02 04:13:03;;;;;;;19.88;5.90;;;14.70;99.90;;;;;;5076908;27;20051;-82
2023/07/02 04:15:29;;;;;;;19.70;6.13;;;14.70;99.90;;;;;;5092186;27;20486;-81
2023/07/02 04:17:55;;;;;;;21.67;5.90;;;14.70;99.90;;;;;;5111194;27;20387;-82
2023/07/02 04:20:21;;;;;;;19.20;5.45;;;14.70;99.90;;;;;;5107942;27;20111;-83
2023/07/02 04:22:47;;;;;;;20.17;5.35;;;14.80;99.90;;;;;;5129030;27;20043;-81
2023/07/02 04:25:16;;;;;;;16.98;5.65;;;14.80;99.90;;;;;;5127563;27;20040;-81
2023/07/02 04:27:42;;;;;;;16.20;4.90;;;14.80;99.90;;;;;;5109362;27;20047;-82
2023/07/02 04:30:13;;;;;;;23.77;5.63;;;14.90;99.90;;;;;;5128569;27;20114;-83
2023/07/02 04:32:39;;;;;;;20.98;6.13;;;14.90;99.90;;;;;;5091320;27;20054;-83
2023/07/02 04:35:06;;;;;;;20.23;5.10;;;14.90;99.90;;;;;;5129341;27;20039;-82
2023/07/02 04:37:32;;;;;;;17.33;5.40;;;15.00;99.90;;;;;;5090839;27;20087;-83
2023/07/02 04:39:57;;;;;;;16.60;5.82;;;15.00;99.90;;;;;;5109790;27;20086;-83
2023/07/02 04:42:27;;;;;;;17.95;5.63;;;15.20;99.90;;;;;;5108510;27;20031;-83
2023/07/02 04:44:55;;;;;;;21.48;6.45;;;15.00;99.90;;;;;;5127570;27;20452;-83
2023/07/02 04:47:21;;;;;;;15.02;5.35;;;15.10;99.90;;;;;;5091929;27;20058;-82
2023/07/02 04:49:47;;;;;;;13.88;5.18;;;15.00;99.90;;;;;;5057368;27;20043;-82
2023/07/02 04:52:13;;;;;;;12.25;4.82;;;15.00;99.90;;;;;;5128579;27;20035;-82
2023/07/02 04:54:38;;;;;;;17.13;5.35;;;15.00;99.90;;;;;;5107274;27;20043;-82
2023/07/02 04:57:04;;;;;;;19.70;6.38;;;15.10;99.90;;;;;;5129083;27;20043;-83
2023/07/02 04:59:30;;;;;;;17.40;4.47;;;15.10;99.90;;;;;;5094075;27;20043;-82
2023/07/02 05:01:55;;;;;;;15.70;5.95;;;15.20;99.90;;;;;;5131819;27;20073;-81
2023/07/02 05:04:21;;;;;;;18.13;4.70;;;15.20;99.90;;;;;;5112167;27;20739;-81
2023/07/02 05:06:47;;;;;;;22.23;4.68;;;14.50;99.90;;;;;;5074372;27;20071;-82
2023/07/02 05:09:13;;;;;;;18.45;5.15;;;15.40;99.90;;;;;;5110386;27;20382;-81
2023/07/02 05:11:38;;;;;;;14.93;4.18;;;16.40;99.90;;;;;;5107517;27;20054;-82
2023/07/02 05:14:04;;;;;;;9.98;4.35;;;15.50;99.90;;;;;;5128082;27;20054;-81
2023/07/02 05:16:30;;;;;;;14.80;4.72;;;15.60;99.90;;;;;;5126151;27;20165;-82
2023/07/02 05:18:56;;;;;;;12.57;4.57;;;15.80;99.90;;;;;;5108254;27;20107;-81
2023/07/02 05:21:22;;;;;;;11.65;3.90;;;16.00;99.90;;;;;;5074201;27;20051;-80
2023/07/02 05:23:48;;;;;;;13.70;4.40;;;16.10;99.90;;;;;;5107007;27;20043;-80
2023/07/02 05:26:14;;;;;;;17.73;4.57;;;16.20;99.90;;;;;;5109306;27;20050;-83
2023/07/02 05:28:40;;;;;;;11.57;3.60;;;16.30;99.90;;;;;;5107154;27;20038;-82
2023/07/02 05:31:05;;;;;;;7.72;3.30;;;16.30;99.90;;;;;;5128212;27;20118;-81
2023/07/02 05:33:33;;;;;;;11.93;3.50;;;16.30;99.90;;;;;;5107703;27;20126;-82
2023/07/02 05:35:58;;;;;;;16.20;4.25;;;16.30;99.90;;;;;;5091484;27;20047;-82
2023/07/02 05:38:24;;;;;;;16.63;3.80;;;16.30;99.90;;;;;;5091248;27;20049;-81
2023/07/02 05:40:50;;;;;;;10.80;4.07;;;16.30;99.90;;;;;;5107498;27;20043;-82
2023/07/02 05:43:16;;;;;;;11.05;3.88;;;16.30;99.90;;;;;;5092254;27;20035;-81
2023/07/02 05:45:42;;;;;;;14.30;3.50;;;16.40;99.90;;;;;;5106888;27;20536;-80
2023/07/02 05:48:07;;;;;;;13.07;4.20;;;16.40;99.90;;;;;;5092146;27;20082;-81
2023/07/02 05:50:33;;;;;;;9.80;3.50;;;16.30;99.90;;;;;;5125011;27;20047;-81
2023/07/02 05:52:59;;;;;;;14.88;4.30;;;16.40;99.90;;;;;;5107868;27;20054;-82
2023/07/02 05:55:25;;;;;;;16.30;4.35;;;16.40;99.90;;;;;;5074934;27;20043;-81
2023/07/02 05:57:50;;;;;;;12.98;3.85;;;16.50;99.90;;;;;;5107345;27;20122;-81
2023/07/02 06:00:17;;;;;;;13.90;4.05;;;16.60;99.90;;;;;;5107808;27;20125;-80
2023/07/02 06:02:45;;;;;;;12.60;4.13;;;16.60;99.90;;;;;;5124934;27;20068;-81
2023/07/02 06:05:11;;;;;;;16.95;3.72;;;15.50;99.90;;;;;;5108909;27;20094;-81
2023/07/02 06:07:36;;;;;;;14.32;3.40;;;16.70;99.90;;;;;;5124583;27;20082;-82
2023/07/02 06:10:02;;;;;;;14.27;4.63;;;16.80;99.90;;;;;;5126272;27;20043;-79
2023/07/02 06:12:28;;;;;;;13.88;4.25;;;16.90;99.90;;;;;;5125688;27;20046;-82
2023/07/02 06:14:54;;;;;;;14.15;4.10;;;16.90;99.90;;;;;;5089613;27;20566;-80
2023/07/02 06:17:21;;;;;;;16.15;4.63;;;16.90;99.90;;;;;;5107959;27;20047;-82
2023/07/02 06:19:47;;;;;;;13.63;3.80;;;17.00;99.90;;;;;;5125207;27;20035;-81
2023/07/02 06:22:13;;;;;;;13.02;4.45;;;17.10;99.90;;;;;;5091178;27;20556;-80
2023/07/02 06:24:38;;;;;;;8.85;3.45;;;17.10;99.90;;;;;;5124713;27;20089;-81
2023/07/02 06:27:04;;;;;;;12.63;3.67;;;17.20;99.90;;;;;;5127621;27;20043;-84
2023/07/02 06:29:30;;;;;;;14.40;3.75;;;17.30;99.90;;;;;;5097862;27;20108;-84
2023/07/02 06:31:56;;;;;;;14.23;3.85;;;17.40;99.90;;;;;;5115614;27;20124;-84
2023/07/02 06:34:24;;;;;;;13.27;5.00;;;17.40;99.90;;;;;;5075981;27;20081;-84
2023/07/02 06:36:50;;;;;;;11.65;3.20;;;17.50;99.90;;;;;;5090220;27;20075;-84
2023/07/02 06:39:16;;;;;;;14.07;3.60;;;17.60;99.90;;;;;;5126927;27;20259;-85
2023/07/02 06:41:41;;;;;;;11.73;3.15;;;17.70;99.90;;;;;;5088611;28;20040;-85
2023/07/02 06:44:08;;;;;;;10.00;3.10;;;17.80;99.90;;;;;;5107708;28;20653;-82
2023/07/02 06:46:33;;;;;;;10.60;2.75;;;17.80;99.90;;;;;;5125247;28;20071;-86
2023/07/02 06:48:59;;;;;;;10.32;2.92;;;17.70;99.90;;;;;;5106765;28;20478;-84
2023/07/02 06:51:26;;;;;;;9.55;2.63;;;17.70;99.90;;;;;;5090916;28;20035;-83
2023/07/02 06:57:33;;;;;;;14.35;2.55;;;17.70;99.90;;;;;;5721221;22;20120;-91
2023/07/02 07:00:00;;;;;;;8.93;2.95;;;17.70;99.90;;;;;;5042087;28;20478;-91
2023/07/02 07:02:27;;;;;;;10.10;3.00;;;17.70;99.90;;;;;;5042131;28;20048;-92
2023/07/02 07:04:53;;;;;;;9.98;3.53;;;17.60;99.90;;;;;;5040973;28;20051;-89
2023/07/02 07:07:19;;;;;;;8.85;2.65;;;17.60;99.90;;;;;;5057484;28;20044;-91
2023/07/02 07:09:45;;;;;;;5.72;1.77;;;17.60;99.90;;;;;;5058324;28;20051;-92
2023/07/02 07:12:10;;;;;;;6.72;2.15;;;17.80;99.90;;;;;;5061816;28;20036;-91
2023/07/02 07:14:36;;;;;;;7.10;1.80;;;17.80;99.90;;;;;;5078230;28;20403;-89
2023/07/02 07:17:02;;;;;;;6.45;2.00;;;16.60;99.90;;;;;;5060791;28;20040;-89
2023/07/02 07:19:28;;;;;;;11.85;2.53;;;18.00;99.90;;;;;;5060677;28;20047;-91
2023/07/02 07:21:54;;;;;;;15.57;2.47;;;18.10;99.90;;;;;;5044049;28;20044;-87
2023/07/02 07:24:19;;;;;;;8.82;1.63;;;18.30;99.90;;;;;;5061764;28;20044;-89
2023/07/02 07:26:45;;;;;;;13.00;2.67;;;18.40;99.90;;;;;;5043958;28;20046;-88
2023/07/02 07:29:11;;;;;;;8.43;2.30;;;18.40;99.90;;;;;;5045050;28;20082;-87
2023/07/02 07:31:37;;;;;;;12.77;2.42;;;18.40;99.90;;;;;;5059597;28;20515;-88
2023/07/02 07:34:03;;;;;;;8.63;2.90;;;18.40;99.90;;;;;;5077006;28;20036;-89
2023/07/02 07:36:28;;;;;;;11.55;2.70;;;18.50;99.90;;;;;;5043427;28;20043;-91
2023/07/02 07:38:54;;;;;;;7.22;2.13;;;18.70;99.90;;;;;;5044101;28;20044;-88
2023/07/02 07:41:20;;;;;;;7.55;2.70;;;18.80;99.90;;;;;;5042291;28;20050;-88
2023/07/02 07:43:45;;;;;;;15.00;2.33;;;18.80;99.90;;;;;;5060154;28;20126;-91
2023/07/02 07:46:11;;;;;;;7.95;2.00;;;18.80;99.90;;;;;;5063212;28;20390;-89
2023/07/02 07:48:37;;;;;;;7.43;2.10;;;18.80;99.90;;;;;;5060241;28;20052;-92
2023/07/02 07:51:03;;;;;;;8.75;1.80;;;18.90;99.90;;;;;;5044981;28;20039;-90
2023/07/02 07:53:29;;;;;;;8.77;2.38;;;17.70;99.90;;;;;;5042918;28;20047;-90
2023/07/02 07:55:54;;;;;;;5.55;1.83;;;19.20;99.90;;;;;;5061063;28;20525;-92
2023/07/02 07:58:20;;;;;;;8.27;2.72;;;19.30;99.90;;;;;;5071496;28;20131;-94
2023/07/02 08:00:51;;;;;;;7.75;1.73;;;19.50;99.90;;;;;;5079253;28;20044;-88
2023/07/02 08:03:17;;;;;;;5.32;1.88;;;19.60;99.90;;;;;;5043588;28;20044;-91
2023/07/02 08:05:44;;;;;;;6.90;2.33;;;19.70;99.90;;;;;;5092817;28;20040;-85
2023/07/02 08:08:10;;;;;;;9.18;2.13;;;19.90;99.30;;;;;;5077109;28;20056;-86
2023/07/02 08:10:35;;;;;;;8.38;2.30;;;20.00;98.80;;;;;;5059362;28;20482;-86
2023/07/02 08:13:01;;;;;;;6.13;1.80;;;20.10;98.80;;;;;;5060029;28;20044;-85
2023/07/02 08:15:27;;;;;;;11.63;3.00;;;20.00;98.40;;;;;;5042189;28;20488;-88
2023/07/02 08:17:54;;;;;;;5.20;1.48;;;19.90;98.40;;;;;;5081087;28;20042;-96
2023/07/02 08:20:20;;;;;;;7.50;1.52;;;19.70;98.00;;;;;;5061601;28;20437;-93
2023/07/02 08:22:46;;;;;;;7.75;2.00;;;19.40;98.10;;;;;;5059125;28;20051;-88
2023/07/02 08:25:12;;;;;;;10.05;1.75;;;19.20;98.00;;;;;;5076871;28;20103;-87
2023/07/02 08:27:37;;;;;;;6.63;1.95;;;18.80;98.10;;;;;;5076931;28;20427;-88
2023/07/02 08:30:03;;;;;;;9.88;1.80;;;18.60;98.50;;;;;;5063034;28;20066;-92
2023/07/02 08:32:29;;;;;;;7.95;2.63;;;17.30;98.80;;;;;;5060377;28;20435;-92
2023/07/02 08:34:55;;;;;;;7.75;2.28;;;18.40;99.90;;;;;;5062427;28;20116;-90
2023/07/02 08:37:21;;;;;;;7.47;2.50;;;18.30;99.90;;;;;;5075499;28;20470;-88
2023/07/02 08:39:49;;;;;;;8.52;1.95;;;18.30;99.90;;;;;;5044015;28;20047;-92
2023/07/02 08:42:16;;;;;;;11.45;2.58;;;18.20;99.90;;;;;;5058298;28;20097;-90
2023/07/02 08:44:45;;;;;;;7.38;2.55;;;18.10;99.90;;;;;;5077359;28;20040;-93
2023/07/02 08:47:11;;;;;;;8.43;2.60;;;18.00;99.90;;;;;;5076628;28;20052;-88
2023/07/02 08:49:37;;;;;;;7.15;2.50;;;18.10;99.90;;;;;;5094265;28;20032;-93
2023/07/02 08:52:05;;;;;;;10.85;2.70;;;18.40;99.90;;;;;;5061358;28;20044;-85
2023/07/02 08:54:31;;;;;;;8.63;2.50;;;18.60;99.90;;;;;;5092257;28;20059;-90
2023/07/02 08:56:57;;;;;;;7.78;2.33;;;18.80;99.90;;;;;;5093150;28;20040;-87
2023/07/02 08:59:23;;;;;;;10.05;2.63;;;19.00;99.90;;;;;;5077153;28;20052;-88
2023/07/02 09:01:50;;;;;;;10.27;2.78;;;19.30;99.90;;;;;;5170633;22;20129;-86
2023/07/02 09:04:20;;;;;;;8.48;2.45;;;19.40;99.90;;;;;;5049838;28;20045;-84
2023/07/02 09:06:48;;;;;;;8.80;2.33;;;19.30;99.90;;;;;;5019060;28;20048;-87
2023/07/02 09:09:14;;;;;;;7.88;2.60;;;19.10;99.90;;;;;;5050328;28;20095;-85
2023/07/02 09:11:50;;;;;;;16.30;2.95;;;19.00;99.90;;;;;;5018648;28;20110;-85
2023/07/02 09:14:26;;;;;;;11.35;3.05;;;18.80;99.90;;;;;;5050843;28;20053;-83
2023/07/02 09:17:02;;;;;;;10.57;1.92;;;18.70;99.90;;;;;;5049394;28;20115;-85
2023/07/02 09:19:28;;;;;;;6.78;1.90;;;18.60;99.80;;;;;;5051555;28;20411;-87
2023/07/02 09:21:56;;;;;;;8.30;2.15;;;18.60;99.90;;;;;;5032575;28;20140;-85
2023/07/02 09:24:24;;;;;;;7.43;2.25;;;18.50;99.80;;;;;;5050851;28;20132;-83
2023/07/02 09:26:53;;;;;;;5.97;1.80;;;18.60;99.80;;;;;;5050397;28;20128;-85
2023/07/02 09:29:31;;;;;;;7.95;1.42;;;18.90;99.50;;;;;;5033887;28;20495;-86
2023/07/02 09:32:09;;;;;;;6.53;1.60;;;19.20;98.70;;;;;;5050999;28;20060;-86
2023/07/02 09:34:37;;;;;;;12.70;1.92;;;19.50;97.50;;;;;;5001497;28;20103;-86
2023/07/02 09:37:05;;;;;;;6.78;1.60;;;19.80;98.00;;;;;;5038662;28;20136;-84
2023/07/02 09:39:33;;;;;;;3.15;0.93;;;20.10;97.30;;;;;;5036695;28;20059;-87
2023/07/02 09:42:00;;;;;;;4.82;1.55;;;20.30;96.70;;;;;;5038153;28;20067;-84
2023/07/02 09:44:33;;;;;;;5.15;1.35;;;20.60;96.60;;;;;;5067089;28;20041;-87
2023/07/02 09:47:07;;;;;;;4.80;1.85;;;20.90;95.50;;;;;;5041293;28;20112;-88
2023/07/02 09:49:38;;;;;;;3.67;1.00;;;21.00;95.10;;;;;;5064998;28;20091;-89
2023/07/02 09:52:09;;;;;;;5.13;1.58;;;21.00;94.80;;;;;;5048163;28;20120;-85
2023/07/02 09:54:36;;;;;;;3.95;1.70;;;21.00;94.60;;;;;;5053202;28;20052;-86
2023/07/02 09:57:02;;;;;;;5.60;1.35;;;21.00;94.60;;;;;;5055188;28;20048;-84
2023/07/02 09:59:29;;;;;;;4.53;1.15;;;21.00;94.20;;;;;;5036471;28;20052;-85
2023/07/02 10:01:55;;;;;;;3.75;1.08;;;21.20;93.80;;;;;;5051274;28;20403;-88
2023/07/02 10:04:23;;;;;;;5.18;1.50;;;21.50;93.20;;;;;;5052376;28;20044;-86
2023/07/02 10:06:54;;;;;;;6.15;1.65;;;21.80;92.90;;;;;;5038364;28;20135;-87
2023/07/02 10:09:35;;;;;;;6.90;1.70;;;21.80;92.00;;;;;;5052347;28;20048;-88
2023/07/02 10:12:01;;;;;;;7.15;1.67;;;21.60;92.00;;;;;;5038986;28;20048;-89
2023/07/02 10:14:43;;;;;;;7.15;1.60;;;21.30;92.30;;;;;;5052767;28;20201;-86
2023/07/02 10:17:09;;;;;;;8.85;1.88;;;21.10;92.00;;;;;;5068620;28;20037;-87
2023/07/02 10:19:35;;;;;;;5.57;1.45;;;20.90;92.60;;;;;;5053489;28;20041;-85
2023/07/02 10:22:02;;;;;;;8.35;1.83;;;20.70;92.50;;;;;;5034818;28;20088;-86
2023/07/02 10:24:28;;;;;;;6.38;2.03;;;20.60;92.70;;;;;;5053512;28;20041;-86
2023/07/02 10:27:12;;;;;;;4.13;1.45;;;20.50;93.20;;;;;;5051758;28;20040;-85
2023/07/02 10:29:48;;;;;;;5.85;2.20;;;20.40;92.10;;;;;;5036541;28;20135;-87
2023/07/02 10:32:25;;;;;;;8.07;2.10;;;20.40;92.60;;;;;;5055636;28;20042;-86
2023/07/02 10:34:51;;;;;;;5.90;1.92;;;20.50;92.50;;;;;;5068151;28;20051;-85
2023/07/02 10:37:17;;;;;;;8.70;1.35;;;20.70;92.20;;;;;;5071325;28;20047;-84
2023/07/02 10:39:42;;;;;;;8.18;2.22;;;20.80;91.90;;;;;;5051033;28;20110;-84
2023/07/02 10:42:09;;;;;;;3.83;1.45;;;20.70;91.80;;;;;;5052398;28;20049;-84
2023/07/02 10:44:47;;;;;;;6.28;1.80;;;20.50;92.00;;;;;;5052065;28;20127;-85
2023/07/02 10:47:13;;;;;;;4.38;1.30;;;20.40;92.20;;;;;;5067336;28;20063;-85
2023/07/02 10:49:38;;;;;;;8.50;1.58;;;20.20;92.40;;;;;;5070011;28;20037;-86
2023/07/02 10:52:05;;;;;;;7.32;1.60;;;20.10;92.70;;;;;;5052310;28;20100;-86
2023/07/02 10:54:40;;;;;;;8.43;1.80;;;20.20;92.40;;;;;;5063732;28;20280;-83
2023/07/02 10:57:08;;;;;;;10.43;1.98;;;20.60;92.70;;;;;;5071490;28;20053;-86
2023/07/02 10:59:34;;;;;;;6.25;2.08;;;20.70;92.40;;;;;;5069122;28;20175;-85
2023/07/02 11:02:02;;;;;;;5.32;1.45;;;21.00;92.40;;;;;;5068819;28;20139;-82
2023/07/02 11:04:28;;;;;;;4.95;1.60;;;21.20;92.50;;;;;;5051325;28;20104;-87
2023/07/02 11:06:54;;;;;;;5.38;1.73;;;21.30;92.00;;;;;;5069607;28;20044;-83
2023/07/02 11:09:23;;;;;;;6.68;1.60;;;21.50;91.60;;;;;;5050467;28;20045;-85
2023/07/02 11:11:57;;;;;;;5.60;1.38;;;21.80;91.50;;;;;;5069518;28;20398;-84
2023/07/02 11:14:34;;;;;;;4.63;1.55;;;22.10;90.00;;;;;;5067919;28;20045;-83
2023/07/02 11:17:05;;;;;;;5.10;1.95;;;23.20;89.90;;;;;;5051392;28;20499;-83
2023/07/02 11:19:34;;;;;;;4.28;1.48;;;22.30;90.00;;;;;;5069809;28;20049;-85
2023/07/02 11:22:02;;;;;;;9.18;1.77;;;22.30;89.80;;;;;;5055402;28;20489;-85
2023/07/02 11:24:33;;;;;;;4.88;1.55;;;22.40;89.60;;;;;;5082866;28;20052;-86
2023/07/02 11:27:00;;;;;;;4.53;1.30;;;22.50;88.70;;;;;;5090205;28;20066;-86
2023/07/02 11:29:30;;;;;;;4.88;1.17;;;22.70;88.10;;;;;;5064740;28;20045;-84
2023/07/02 11:32:10;;;;;;;3.90;1.25;;;22.60;86.50;;;;;;5054637;28;20193;-85
2023/07/02 11:34:36;;;;;;;5.20;1.50;;;22.40;84.80;;;;;;5068145;28;20045;-86
2023/07/02 11:37:04;;;;;;;14.05;1.42;;;22.20;86.10;;;;;;5071124;28;20040;-83
2023/07/02 11:39:29;;;;;;;7.63;1.20;;;22.10;86.00;;;;;;5050527;28;20045;-84
2023/07/02 11:41:55;;;;;;;4.20;0.88;;;22.10;86.30;;;;;;5070461;28;20041;-83
2023/07/02 11:44:21;;;;;;;5.63;1.45;;;22.10;85.80;;;;;;5051479;28;20041;-83
2023/07/02 11:46:47;;;;;;;5.88;1.20;;;22.00;85.20;;;;;;5068325;28;20055;-85
2023/07/02 11:49:13;;;;;;;4.20;1.20;;;22.00;84.70;;;;;;5070092;28;20040;-84
2023/07/02 11:51:40;;;;;;;3.58;1.10;;;20.10;84.20;;;;;;5068767;28;20123;-83
2023/07/02 11:54:07;;;;;;;4.60;1.45;;;22.50;85.60;;;;;;5070465;28;20052;-85
2023/07/02 11:56:33;;;;;;;8.70;1.13;;;22.60;84.60;;;;;;5067021;28;20045;-86
2023/07/02 11:58:59;;;;;;;4.18;1.40;;;22.70;84.30;;;;;;5072343;28;20475;-84
2023/07/02 12:01:25;;;;;;;4.72;1.55;;;22.50;84.20;;;;;;5055130;28;20048;-85
2023/07/02 12:03:50;;;;;;;4.22;1.20;;;22.30;83.90;;;;;;5059752;28;20040;-84
2023/07/02 12:06:16;;;;;;;6.60;1.50;;;20.40;82.80;;;;;;5079297;28;20114;-83
2023/07/02 12:08:42;;;;;;;4.43;1.45;;;22.20;82.70;;;;;;5049138;28;20413;-83
2023/07/02 12:11:08;;;;;;;4.68;1.30;;;22.10;82.90;;;;;;5079835;28;20044;-85
2023/07/02 12:13:34;;;;;;;5.05;1.50;;;21.80;83.00;;;;;;5053959;28;20090;-92
2023/07/02 12:16:00;;;;;;;5.72;1.45;;;21.50;83.40;;;;;;5039808;28;20074;-83
2023/07/02 12:18:26;;;;;;;7.10;1.45;;;21.30;83.80;;;;;;5072138;28;20045;-85
2023/07/02 12:20:52;;;;;;;3.33;1.15;;;22.20;84.40;;;;;;5038698;28;20143;-86
2023/07/02 12:23:17;;;;;;;5.55;1.65;;;20.90;84.20;;;;;;5055733;28;20048;-85
2023/07/02 12:25:43;;;;;;;4.78;1.80;;;20.90;84.50;;;;;;5071001;28;20414;-86
2023/07/02 12:28:09;;;;;;;5.82;1.63;;;21.00;85.30;;;;;;5055993;28;20044;-86
2023/07/02 12:30:34;;;;;;;7.70;1.75;;;19.80;84.40;;;;;;5054115;28;20040;-87
2023/07/02 12:33:00;;;;;;;5.78;1.60;;;20.90;84.60;;;;;;5039034;28;20041;-87
2023/07/02 12:35:29;;;;;;;3.97;1.58;;;20.70;84.20;;;;;;5070002;28;20076;-86
2023/07/02 12:37:54;;;;;;;7.85;1.95;;;20.60;84.60;;;;;;5072252;28;20068;-89
2023/07/02 12:40:21;;;;;;;2.65;1.40;;;20.50;84.80;;;;;;5055624;28;20049;-87
2023/07/02 12:42:47;;;;;;;8.00;1.75;;;20.50;85.00;;;;;;5039029;28;20047;-89